MFDO2: Hudson Lake

Data processed at Sun Oct 25 2020 23:29


All information presented herein is the property of the government of the United States of America and may be revised or deleted at any time without prior notice.
Dissemination of this information without the expressed written consent of the Public Affairs Office, Tulsa District U.S. Army Corps of Engineers is strictly prohibited.
These data are gathered electronically and, as presented, have not undergone any form of quality control. These data are not guaranteed to be valid or correct.
Go to home page.
Go to station list.
Go to home page.

Upstream stations:

Downstream station:
Previous Day
Next Day
Current Day
    
SHEF ID:       MFDO2     Lake Hudson
STATION TYPE:  RESERVOIR
Flood Pool:  Bottom =   619.00, Top =   636.00

               PRECIP ELEVATION   STORAGE   TW-ELEV    INFLOW   RELEASE  AIR-TEMP  WIND-DIRWIND-SPEED REL-HUMID SOLAR-RAD   VOLTAGE  BAT-LOAD
                   in        ft     ac-ft        ft       cfs       cfs         F       deg       mph         %      W/m2      volt      volt
              Ccp-Rev   Ccp-Rev   Ccp-Rev   Ccp-Rev  Rev-Regi  Rev-Regi   Ccp-Rev   Ccp-Rev   Ccp-Rev   Ccp-Rev   Ccp-Rev   Ccp-Rev   Ccp-Rev
(US/Central)
10/25 00:00      0.00    619.61    206967    562.79         0         0     48.24     55.90      5.10     89.60      0.00     13.00     12.57
10/25 01:00      0.00    619.61    206967    562.13         0         0     47.95     73.50      5.70     89.71      0.00     12.99     12.57
10/25 02:00      0.00    619.62    207078    561.67         0         0     47.97     67.40      5.00     91.25      0.00     13.00     12.57
10/25 03:00      0.00    619.60    206856    561.33         0         0     48.06     67.70      4.30     91.29      0.00     12.99     12.57
10/25 04:00      0.00    619.55    206300    561.06         0         0     48.36     37.10      3.50     91.42      0.00     13.00     12.57
10/25 05:00      0.00    619.52    205967    560.84         0         0     48.38     39.90      4.10     92.52      0.00     12.99     12.57
10/25 06:00      0.00    619.54    206189    560.66         0         0     48.33    358.40      3.80     91.85      0.00     12.99     12.65
10/25 07:00      0.00    619.50    205745    560.50         0         0     48.47      1.20      4.30     91.70      0.00     13.00     12.57
10/25 08:00      0.00    619.45    205189    560.37         0         0     48.52    353.50      4.20     91.62      0.00     12.99     12.57
10/25 09:00      0.00    619.45    205189    560.26         0         0     48.87    349.80      3.50     90.39     17.00     12.99     12.65
10/25 10:00      0.00    619.45    205189    560.15         0         0     49.69     20.60      4.50     88.83     79.50     12.99     12.57
10/25 11:00      0.00    619.48    205523    560.07         0         0     50.81     53.10      3.30     83.14    163.80     12.98     12.57
10/25 12:00      0.00    619.48    205523    559.98         0         0     51.96     24.10      4.20     78.63    155.00     12.99     12.57
10/25 13:00      0.00    619.46    205301    559.91         0         0     51.96    359.40      5.40     80.31     96.70     12.99     12.57
10/25 14:00      0.00    619.54    206189    559.84         0         0     51.98    341.70      5.70     77.95     90.40     12.99     12.57
10/25 15:00      0.00    619.52    205967    559.78         0         0     51.73    343.70      6.50     77.12     69.00     12.99     12.57
10/25 16:00      0.00    619.50    205745    559.72      1064         0     51.60    343.60      6.40     75.78     33.70     12.99     12.57
10/25 17:00      0.00    619.52    205967    559.67      1490         0     51.22    355.20      6.70     77.13     10.30     12.99     12.57
10/25 18:00      0.00    619.57    206523    559.62      2554         0     50.95     11.20      7.10     78.01      1.20     12.99     12.57
10/25 19:00      0.00    619.59    206745    559.58      3406         0     50.61      2.00      6.30     78.17      0.00     12.99     12.57
10/25 20:00      0.00    619.64    207300    559.54      5108         0     50.23    356.60      7.30     78.46      0.00     13.00     12.57
10/25 21:00      0.00    619.68    207745    559.51      4896         0     49.86    354.90      7.40     78.54      0.00     13.00     12.57
10/25 22:00      0.00    619.75    208522    559.47      7024         0     49.10    357.00      8.30     78.22      0.00     13.00     12.65
10/25 23:00      ----      ----      ----      ----      ----      ----      ----      ----      ----      ----      ----      ----      ----